Blackbird — WDJ4307 — position and weather

sailwx.info

Track history (hours):
 
Tides and Currents Weather Stations Pressure Air Temp Water Temp Dewpoint Dewpoint Depression Visibility Wind Speed Wind Dir Waves Ship Positions

Blackbird

Owner: PropSF, LLC, Alameda, CA. More information available from US FCC via Universal Licensing System and Coast Guard Vessel Documentation Center.

Last reported at 2019-Feb-21 03:06 UTC. Time now 2019-Feb-21 11:55 UTC.
Position N 37°50' W 122°19'.

Length 17 m; draft 1 m.

Type: Passenger vessel. MMSI: 367776390.

Date/timePositionNaut miles runAvg speedWind from/ knotsBaromVisibWave heightAir tempDewpointWater temp
2019-Feb-21 03:06N 37°50' W 122°19'0 0.0
2019-Feb-21 03:01N 37°50' W 122°19'1019.5
2019-Feb-21 02:31N 37°58' W 122°26'1224.8
2019-Feb-21 02:00N 38°03' W 122°11'713.0
2019-Feb-21 01:30N 38°02' W 122°19'1019.5
2019-Feb-21 01:01N 37°55' W 122°28'713.2
2019-Feb-21 00:30N 37°51' W 122°21'1223.0
2019-Feb-21 00:00N 37°40' W 122°23'612.5
2019-Feb-20 23:31N 37°46' W 122°21'5 9.9
2019-Feb-20 23:00N 37°51' W 122°22'1122.2
2019-Feb-20 22:30N 37°40' W 122°23'3 6.5
2019-Feb-20 22:01N 37°43' W 122°21'815.4
2019-Feb-20 21:30N 37°50' W 122°19'0 0.0
2019-Feb-20 17:04N 37°51' W 122°19'116.3
2019-Feb-20 17:01N 37°50' W 122°20'1121.6
2019-Feb-20 16:30N 37°40' W 122°23'917.4
2019-Feb-20 16:00N 37°48' W 122°21'4 8.0
2019-Feb-20 15:30N 37°52' W 122°19'918.4
2019-Feb-20 15:00N 37°43' W 122°21'1 1.9
2019-Feb-20 14:30N 37°42' W 122°22'1020.1
2019-Feb-20 14:00N 37°52' W 122°19'3 6.8
2019-Feb-20 13:30N 37°55' W 122°21'4 8.5
2019-Feb-20 13:00N 37°51' W 122°20'1 2.2
2019-Feb-20 12:30N 37°50' W 122°19'0 0.0
2019-Feb-20 03:00N 37°50' W 122°19'816.9
2019-Feb-20 02:30N 37°57' W 122°26'1326.0
2019-Feb-20 02:00N 38°03' W 122°12'612.7
2019-Feb-20 01:30N 38°02' W 122°20'1019.5
2019-Feb-20 01:00N 37°55' W 122°28'713.8
2019-Feb-20 00:31N 37°51' W 122°20'1223.3
2019-Feb-20 00:00N 37°40' W 122°23'5 9.1
2019-Feb-19 23:31N 37°44' W 122°21'815.4
2019-Feb-19 23:01N 37°52' W 122°19'1224.3
2019-Feb-19 22:30N 37°40' W 122°23'4 8.3
2019-Feb-19 22:01N 37°44' W 122°21'713.6
2019-Feb-19 21:30N 37°50' W 122°19'0 0.0
2019-Feb-19 21:00N 37°50' W 122°19'0 0.0
2019-Feb-19 17:12N 37°50' W 122°19'210.4
2019-Feb-19 17:01N 37°49' W 122°21'1019.4
2019-Feb-19 16:30N 37°40' W 122°23'917.1
2019-Feb-19 16:01N 37°48' W 122°21'4 8.4
2019-Feb-19 15:30N 37°52' W 122°19'713.6
2019-Feb-19 15:01N 37°45' W 122°22'3 5.5
2019-Feb-19 14:30N 37°43' W 122°21'918.8
2019-Feb-19 14:00N 37°52' W 122°19'3 6.7
2019-Feb-19 13:31N 37°55' W 122°21'3 6.1
2019-Feb-19 13:00N 37°52' W 122°23'3 6.6
2019-Feb-19 12:30N 37°50' W 122°19'  
2019-Feb-16 03:05N 37°50' W 122°19'0 0.7
2019-Feb-16 03:00N 37°50' W 122°19'1019.0
2019-Feb-16 02:30N 37°58' W 122°26'1225.2
2019-Feb-16 02:01N 38°04' W 122°12'510.5
2019-Feb-16 01:30N 38°03' W 122°19'1121.6
2019-Feb-16 01:01N 37°55' W 122°28'612.3
2019-Feb-16 00:31N 37°51' W 122°21'1122.5
2019-Feb-16 00:00N 37°40' W 122°23'612.2
2019-Feb-15 23:31N 37°46' W 122°22'510.8
2019-Feb-15 23:01N 37°51' W 122°21'1122.9
2019-Feb-15 22:30N 37°40' W 122°23'2 4.6
2019-Feb-15 22:00N 37°42' W 122°21'917.4
2019-Feb-15 21:30N 37°50' W 122°19'0 0.0
2019-Feb-15 21:00N 37°50' W 122°19'0 0.0
2019-Feb-15 18:52N 37°50' W 122°19'0 0.0
2019-Feb-15 18:31N 37°50' W 122°19'0 0.2
2019-Feb-15 16:59N 37°51' W 122°19'1123.1
2019-Feb-15 16:30N 37°40' W 122°23'917.5
2019-Feb-15 16:01N 37°49' W 122°21'4 7.9
2019-Feb-15 15:30N 37°52' W 122°19'510.9
2019-Feb-15 15:00N 37°47' W 122°21'510.3
2019-Feb-15 14:30N 37°42' W 122°22'1120.7
2019-Feb-15 14:00N 37°52' W 122°19'3 6.6
2019-Feb-15 13:30N 37°55' W 122°21'2 4.0
2019-Feb-15 13:00N 37°53' W 122°24'5 9.8
2019-Feb-15 12:30N 37°50' W 122°19'0 0.0
2019-Feb-15 01:15N 37°50' W 122°19'0 0.0
2019-Feb-15 01:01N 37°50' W 122°19'2 3.9
2019-Feb-15 00:30N 37°51' W 122°21'1122.3
2019-Feb-15 00:00N 37°40' W 122°23'510.7
2019-Feb-14 23:31N 37°45' W 122°21'713.3
2019-Feb-14 23:01N 37°51' W 122°20'1223.5
2019-Feb-14 22:30N 37°40' W 122°23'0 0.0
2019-Feb-14 21:59N 37°40' W 122°23'918.3
2019-Feb-14 21:31N 37°49' W 122°21'3 5.4
2019-Feb-14 21:00N 37°50' W 122°19'0 0.0
2019-Feb-14 02:03N 37°50' W 122°19'0 0.0
2019-Feb-14 02:00N 37°50' W 122°19'0 0.6
2019-Feb-14 01:31N 37°51' W 122°19'816.3
2019-Feb-14 01:00N 37°55' W 122°28'611.9
2019-Feb-14 00:31N 37°51' W 122°22'1120.0
2019-Feb-13 23:57N 37°40' W 122°23'817.1
2019-Feb-13 23:30N 37°47' W 122°22'3 5.5
2019-Feb-13 23:01N 37°50' W 122°22'1020.6
2019-Feb-13 22:30N 37°40' W 122°23'0 0.0
2019-Feb-13 22:00N 37°40' W 122°23'714.1
2019-Feb-13 21:31N 37°47' W 122°22'4 8.5
2019-Feb-13 21:01N 37°50' W 122°19'0 0.0
2019-Feb-13 20:30N 37°50' W 122°19'0 0.0
2019-Feb-13 03:09N 37°50' W 122°19'0 0.0
2019-Feb-13 03:00N 37°50' W 122°19'817.0
2019-Feb-13 02:31N 37°56' W 122°27'1427.2
2019-Feb-13 02:00N 38°04' W 122°12'612.0
2019-Feb-13 01:30N 38°02' W 122°19'1019.8
2019-Feb-13 01:01N 37°54' W 122°27'510.9
2019-Feb-13 00:30N 37°51' W 122°22'1122.2
2019-Feb-13 00:00N 37°40' W 122°23'612.4
2019-Feb-12 23:30N 37°46' W 122°22'5 9.2
2019-Feb-12 23:00N 37°51' W 122°22'1120.9
2019-Feb-12 22:30N 37°40' W 122°23'3 6.3
2019-Feb-12 22:01N 37°43' W 122°21'815.7
2019-Feb-12 21:30N 37°50' W 122°19'0 0.1
2019-Feb-12 17:06N 37°51' W 122°19'218.7
2019-Feb-12 17:01N 37°50' W 122°21'1020.6
2019-Feb-12 16:30N 37°40' W 122°23'917.9
2019-Feb-12 16:01N 37°49' W 122°21'4 7.7
2019-Feb-12 15:30N 37°52' W 122°19'713.8
2019-Feb-12 15:00N 37°45' W 122°22'3 6.0
2019-Feb-12 14:31N 37°42' W 122°22'1019.3
2019-Feb-12 14:00N 37°52' W 122°19'3 6.3
2019-Feb-12 13:30N 37°55' W 122°21'4 8.1
2019-Feb-12 13:01N 37°51' W 122°20'1 0.1
2019-Feb-12 02:57N 37°50' W 122°19'817.4
2019-Feb-12 02:30N 37°56' W 122°25'1325.4
2019-Feb-12 02:00N 38°04' W 122°13'611.0
2019-Feb-12 01:30N 38°02' W 122°19'1019.9
2019-Feb-12 01:00N 37°54' W 122°27'510.9
2019-Feb-12 00:30N 37°51' W 122°22'1122.2
2019-Feb-12 00:00N 37°40' W 122°23'611.9
2019-Feb-11 23:31N 37°46' W 122°22'611.4
2019-Feb-11 23:01N 37°51' W 122°21'1223.2
2019-Feb-11 22:31N 37°40' W 122°23'0 0.2
2019-Feb-11 22:01N 37°40' W 122°23'1122.1
2019-Feb-11 21:30N 37°51' W 122°19'0 0.8
2019-Feb-11 21:00N 37°50' W 122°19'0 0.1
2019-Feb-11 16:57N 37°51' W 122°19'1124.0
2019-Feb-11 16:29N 37°40' W 122°23'918.3
2019-Feb-11 16:01N 37°49' W 122°21'4 7.9
2019-Feb-11 15:30N 37°52' W 122°19'611.9
2019-Feb-11 15:01N 37°46' W 122°22'4 8.2
2019-Feb-11 14:31N 37°42' W 122°22'1019.5
2019-Feb-11 14:00N 37°52' W 122°19'3 6.7
2019-Feb-11 13:30N 37°55' W 122°21'4 8.0
2019-Feb-11 13:00N 37°51' W 122°21'2 4.1
2019-Feb-11 12:30N 37°50' W 122°19'  
Track history (hours):
 
Tides and Currents Weather Stations Pressure Air Temp Water Temp Dewpoint Dewpoint Depression Visibility Wind Speed Wind Dir Waves Ship Positions

Blackbird

Owner: PropSF, LLC, Alameda, CA. More information available from US FCC via Universal Licensing System and Coast Guard Vessel Documentation Center.

Last reported at 2019-Feb-21 03:06 UTC. Time now 2019-Feb-21 11:55 UTC.
Position N 37°50' W 122°19'.

Length 17 m; draft 1 m.

Type: Passenger vessel. MMSI: 367776390.

Date/timePositionNaut miles runAvg speedWind from/ knotsBaromVisibWave heightAir tempDewpointWater temp
2019-Feb-21 03:06N 37°50' W 122°19'0 0.0
2019-Feb-21 03:01N 37°50' W 122°19'1019.5
2019-Feb-21 02:31N 37°58' W 122°26'1224.8
2019-Feb-21 02:00N 38°03' W 122°11'713.0
2019-Feb-21 01:30N 38°02' W 122°19'1019.5
2019-Feb-21 01:01N 37°55' W 122°28'713.2
2019-Feb-21 00:30N 37°51' W 122°21'1223.0
2019-Feb-21 00:00N 37°40' W 122°23'612.5
2019-Feb-20 23:31N 37°46' W 122°21'5 9.9
2019-Feb-20 23:00N 37°51' W 122°22'1122.2
2019-Feb-20 22:30N 37°40' W 122°23'3 6.5
2019-Feb-20 22:01N 37°43' W 122°21'815.4
2019-Feb-20 21:30N 37°50' W 122°19'0 0.0
2019-Feb-20 17:04N 37°51' W 122°19'116.3
2019-Feb-20 17:01N 37°50' W 122°20'1121.6
2019-Feb-20 16:30N 37°40' W 122°23'917.4
2019-Feb-20 16:00N 37°48' W 122°21'4 8.0
2019-Feb-20 15:30N 37°52' W 122°19'918.4
2019-Feb-20 15:00N 37°43' W 122°21'1 1.9
2019-Feb-20 14:30N 37°42' W 122°22'1020.1
2019-Feb-20 14:00N 37°52' W 122°19'3 6.8
2019-Feb-20 13:30N 37°55' W 122°21'4 8.5
2019-Feb-20 13:00N 37°51' W 122°20'1 2.2
2019-Feb-20 12:30N 37°50' W 122°19'0 0.0
2019-Feb-20 03:00N 37°50' W 122°19'816.9
2019-Feb-20 02:30N 37°57' W 122°26'1326.0
2019-Feb-20 02:00N 38°03' W 122°12'612.7
2019-Feb-20 01:30N 38°02' W 122°20'1019.5
2019-Feb-20 01:00N 37°55' W 122°28'713.8
2019-Feb-20 00:31N 37°51' W 122°20'1223.3
2019-Feb-20 00:00N 37°40' W 122°23'5 9.1
2019-Feb-19 23:31N 37°44' W 122°21'815.4
2019-Feb-19 23:01N 37°52' W 122°19'1224.3
2019-Feb-19 22:30N 37°40' W 122°23'4 8.3
2019-Feb-19 22:01N 37°44' W 122°21'713.6
2019-Feb-19 21:30N 37°50' W 122°19'0 0.0
2019-Feb-19 21:00N 37°50' W 122°19'0 0.0
2019-Feb-19 17:12N 37°50' W 122°19'210.4
2019-Feb-19 17:01N 37°49' W 122°21'1019.4
2019-Feb-19 16:30N 37°40' W 122°23'917.1
2019-Feb-19 16:01N 37°48' W 122°21'4 8.4
2019-Feb-19 15:30N 37°52' W 122°19'713.6
2019-Feb-19 15:01N 37°45' W 122°22'3 5.5
2019-Feb-19 14:30N 37°43' W 122°21'918.8
2019-Feb-19 14:00N 37°52' W 122°19'3 6.7
2019-Feb-19 13:31N 37°55' W 122°21'3 6.1
2019-Feb-19 13:00N 37°52' W 122°23'3 6.6
2019-Feb-19 12:30N 37°50' W 122°19'  
2019-Feb-16 03:05N 37°50' W 122°19'0 0.7
2019-Feb-16 03:00N 37°50' W 122°19'1019.0
2019-Feb-16 02:30N 37°58' W 122°26'1225.2
2019-Feb-16 02:01N 38°04' W 122°12'510.5
2019-Feb-16 01:30N 38°03' W 122°19'1121.6
2019-Feb-16 01:01N 37°55' W 122°28'612.3
2019-Feb-16 00:31N 37°51' W 122°21'1122.5
2019-Feb-16 00:00N 37°40' W 122°23'612.2
2019-Feb-15 23:31N 37°46' W 122°22'510.8
2019-Feb-15 23:01N 37°51' W 122°21'1122.9
2019-Feb-15 22:30N 37°40' W 122°23'2 4.6
2019-Feb-15 22:00N 37°42' W 122°21'917.4
2019-Feb-15 21:30N 37°50' W 122°19'0 0.0
2019-Feb-15 21:00N 37°50' W 122°19'0 0.0
2019-Feb-15 18:52N 37°50' W 122°19'0 0.0
2019-Feb-15 18:31N 37°50' W 122°19'0 0.2
2019-Feb-15 16:59N 37°51' W 122°19'1123.1
2019-Feb-15 16:30N 37°40' W 122°23'917.5
2019-Feb-15 16:01N 37°49' W 122°21'4 7.9
2019-Feb-15 15:30N 37°52' W 122°19'510.9
2019-Feb-15 15:00N 37°47' W 122°21'510.3
2019-Feb-15 14:30N 37°42' W 122°22'1120.7
2019-Feb-15 14:00N 37°52' W 122°19'3 6.6
2019-Feb-15 13:30N 37°55' W 122°21'2 4.0
2019-Feb-15 13:00N 37°53' W 122°24'5 9.8
2019-Feb-15 12:30N 37°50' W 122°19'0 0.0
2019-Feb-15 01:15N 37°50' W 122°19'0 0.0
2019-Feb-15 01:01N 37°50' W 122°19'2 3.9
2019-Feb-15 00:30N 37°51' W 122°21'1122.3
2019-Feb-15 00:00N 37°40' W 122°23'510.7
2019-Feb-14 23:31N 37°45' W 122°21'713.3
2019-Feb-14 23:01N 37°51' W 122°20'1223.5
2019-Feb-14 22:30N 37°40' W 122°23'0 0.0
2019-Feb-14 21:59N 37°40' W 122°23'918.3
2019-Feb-14 21:31N 37°49' W 122°21'3 5.4
2019-Feb-14 21:00N 37°50' W 122°19'0 0.0
2019-Feb-14 02:03N 37°50' W 122°19'0 0.0
2019-Feb-14 02:00N 37°50' W 122°19'0 0.6
2019-Feb-14 01:31N 37°51' W 122°19'816.3
2019-Feb-14 01:00N 37°55' W 122°28'611.9
2019-Feb-14 00:31N 37°51' W 122°22'1120.0
2019-Feb-13 23:57N 37°40' W 122°23'817.1
2019-Feb-13 23:30N 37°47' W 122°22'3 5.5
2019-Feb-13 23:01N 37°50' W 122°22'1020.6
2019-Feb-13 22:30N 37°40' W 122°23'0 0.0
2019-Feb-13 22:00N 37°40' W 122°23'714.1
2019-Feb-13 21:31N 37°47' W 122°22'4 8.5
2019-Feb-13 21:01N 37°50' W 122°19'0 0.0
2019-Feb-13 20:30N 37°50' W 122°19'0 0.0
2019-Feb-13 03:09N 37°50' W 122°19'0 0.0
2019-Feb-13 03:00N 37°50' W 122°19'817.0
2019-Feb-13 02:31N 37°56' W 122°27'1427.2
2019-Feb-13 02:00N 38°04' W 122°12'612.0
2019-Feb-13 01:30N 38°02' W 122°19'1019.8
2019-Feb-13 01:01N 37°54' W 122°27'510.9
2019-Feb-13 00:30N 37°51' W 122°22'1122.2
2019-Feb-13 00:00N 37°40' W 122°23'612.4
2019-Feb-12 23:30N 37°46' W 122°22'5 9.2
2019-Feb-12 23:00N 37°51' W 122°22'1120.9
2019-Feb-12 22:30N 37°40' W 122°23'3 6.3
2019-Feb-12 22:01N 37°43' W 122°21'815.7
2019-Feb-12 21:30N 37°50' W 122°19'0 0.1
2019-Feb-12 17:06N 37°51' W 122°19'218.7
2019-Feb-12 17:01N 37°50' W 122°21'1020.6
2019-Feb-12 16:30N 37°40' W 122°23'917.9
2019-Feb-12 16:01N 37°49' W 122°21'4 7.7
2019-Feb-12 15:30N 37°52' W 122°19'713.8
2019-Feb-12 15:00N 37°45' W 122°22'3 6.0
2019-Feb-12 14:31N 37°42' W 122°22'1019.3
2019-Feb-12 14:00N 37°52' W 122°19'3 6.3
2019-Feb-12 13:30N 37°55' W 122°21'4 8.1
2019-Feb-12 13:01N 37°51' W 122°20'1 0.1
2019-Feb-12 02:57N 37°50' W 122°19'817.4
2019-Feb-12 02:30N 37°56' W 122°25'1325.4
2019-Feb-12 02:00N 38°04' W 122°13'611.0
2019-Feb-12 01:30N 38°02' W 122°19'1019.9
2019-Feb-12 01:00N 37°54' W 122°27'510.9
2019-Feb-12 00:30N 37°51' W 122°22'1122.2
2019-Feb-12 00:00N 37°40' W 122°23'611.9
2019-Feb-11 23:31N 37°46' W 122°22'611.4
2019-Feb-11 23:01N 37°51' W 122°21'1223.2
2019-Feb-11 22:31N 37°40' W 122°23'0 0.2
2019-Feb-11 22:01N 37°40' W 122°23'1122.1
2019-Feb-11 21:30N 37°51' W 122°19'0 0.8
2019-Feb-11 21:00N 37°50' W 122°19'0 0.1
2019-Feb-11 16:57N 37°51' W 122°19'1124.0
2019-Feb-11 16:29N 37°40' W 122°23'918.3
2019-Feb-11 16:01N 37°49' W 122°21'4 7.9
2019-Feb-11 15:30N 37°52' W 122°19'611.9
2019-Feb-11 15:01N 37°46' W 122°22'4 8.2
2019-Feb-11 14:31N 37°42' W 122°22'1019.5
2019-Feb-11 14:00N 37°52' W 122°19'3 6.7
2019-Feb-11 13:30N 37°55' W 122°21'4 8.0
2019-Feb-11 13:00N 37°51' W 122°21'2 4.1
2019-Feb-11 12:30N 37°50' W 122°19'  

Dump ship's entire track history